createdAt,value
2023-02-17T00:02:15.681Z,101373.13
2023-02-17T00:04:42.272Z,101379.19
2023-02-17T00:07:08.703Z,101376.28
2023-02-17T00:09:36.906Z,101321.78
2023-02-17T00:12:03.497Z,101361.22
2023-02-17T00:14:29.887Z,101375.50
2023-02-17T00:16:56.409Z,101370.88
2023-02-17T00:19:25.932Z,101354.41
2023-02-17T00:21:55.621Z,101370.75
2023-02-17T00:24:23.970Z,101355.72
2023-02-17T00:26:50.452Z,101342.88
2023-02-17T00:29:17.449Z,101338.13
2023-02-17T00:31:44.865Z,101366.88
2023-02-17T00:34:11.733Z,101359.84
2023-02-17T00:36:39.193Z,101354.25
2023-02-17T00:39:06.907Z,101359.91
2023-02-17T00:41:34.027Z,101356.63
2023-02-17T00:44:00.783Z,101359.28
2023-02-17T00:46:27.693Z,101373.13
2023-02-17T00:48:54.618Z,101355.41
2023-02-17T00:51:21.154Z,101341.88
2023-02-17T00:53:47.640Z,101355.75
2023-02-17T00:56:14.803Z,101299.50
2023-02-17T00:58:41.801Z,101354.78
2023-02-17T01:01:08.991Z,101353.63
2023-02-17T01:03:35.467Z,101344.94
2023-02-17T01:06:07.544Z,101346.78
2023-02-17T01:08:34.267Z,101340.88
2023-02-17T01:11:00.731Z,101319.63
2023-02-17T01:13:27.441Z,101296.38
2023-02-17T01:15:54.629Z,101308.56
2023-02-17T01:18:23.840Z,101324.38
2023-02-17T01:20:51.264Z,101290.38
2023-02-17T01:23:17.909Z,101307.25
2023-02-17T01:25:46.623Z,101328.59
2023-02-17T01:28:17.475Z,101317.78
2023-02-17T01:30:43.968Z,101316.22
2023-02-17T01:33:10.768Z,101300.22
2023-02-17T01:35:37.204Z,101298.94
2023-02-17T01:38:03.645Z,101289.66
2023-02-17T01:40:30.302Z,101290.09
2023-02-17T01:42:56.818Z,101279.09
2023-02-17T01:45:23.161Z,101291.78
2023-02-17T01:48:11.879Z,101285.91
2023-02-17T01:50:46.725Z,101275.25
2023-02-17T01:53:16.610Z,101266.78
2023-02-17T01:55:44.147Z,101239.47
2023-02-17T01:58:15.918Z,101264.31
2023-02-17T02:00:43.239Z,101265.28
2023-02-17T02:03:14.121Z,101261.38
2023-02-17T02:05:43.838Z,101255.91
2023-02-17T02:08:12.091Z,101232.84
2023-02-17T02:10:38.837Z,101230.00
2023-02-17T02:13:05.762Z,101191.75
2023-02-17T02:15:39.981Z,101218.50
2023-02-17T02:18:26.595Z,101216.53
2023-02-17T02:20:58.880Z,101211.63
2023-02-17T02:23:56.209Z,101215.28
2023-02-17T02:26:41.081Z,101207.28
2023-02-17T02:29:19.717Z,101208.69
2023-02-17T02:31:56.366Z,101200.09
2023-02-17T02:35:05.857Z,101196.59
2023-02-17T02:37:49.949Z,101159.06
2023-02-17T02:40:20.113Z,101170.59
2023-02-17T02:42:46.944Z,101197.44
2023-02-17T02:45:13.553Z,101196.34
2023-02-17T02:47:44.727Z,101201.28
2023-02-17T02:50:26.966Z,101193.53
2023-02-17T02:53:29.830Z,101188.91
2023-02-17T02:56:17.849Z,101188.63
2023-02-17T02:58:59.953Z,101173.31
2023-02-17T03:01:34.013Z,101149.53
2023-02-17T03:04:18.982Z,101178.09
2023-02-17T03:06:55.826Z,101183.31
2023-02-17T03:09:25.888Z,101175.41
2023-02-17T03:11:54.788Z,101180.50
2023-02-17T03:14:22.361Z,101168.97
2023-02-17T03:16:49.988Z,101161.78
2023-02-17T03:19:20.107Z,101150.13
2023-02-17T03:21:49.256Z,101140.41
2023-02-17T03:24:15.947Z,101143.81
2023-02-17T03:26:42.476Z,101143.66
2023-02-17T03:29:09.015Z,101139.44
2023-02-17T03:31:36.060Z,101141.56
2023-02-17T03:34:02.638Z,101140.59
2023-02-17T03:36:29.967Z,101141.44
2023-02-17T03:38:57.097Z,101085.44
2023-02-17T03:41:24.060Z,101147.03
2023-02-17T03:43:50.668Z,101130.88
2023-02-17T03:46:17.829Z,101123.13
2023-02-17T03:48:44.785Z,101118.06
2023-02-17T03:51:16.639Z,101125.09
2023-02-17T03:53:44.927Z,101118.75
2023-02-17T03:56:13.130Z,101123.97
2023-02-17T03:58:40.701Z,101109.19
2023-02-17T04:01:08.725Z,101116.94
2023-02-17T04:03:36.032Z,101080.94
2023-02-17T04:06:03.121Z,101106.69
2023-02-17T04:08:29.954Z,101097.94
2023-02-17T04:10:59.523Z,101064.75
2023-02-17T04:13:26.282Z,101106.53
2023-02-17T04:15:53.265Z,101111.75
2023-02-17T04:18:20.980Z,101108.09
2023-02-17T04:20:51.702Z,101111.75
2023-02-17T04:23:18.775Z,101080.53
2023-02-17T04:25:46.264Z,101113.81
2023-02-17T04:28:13.541Z,101093.44
2023-02-17T04:30:42.292Z,101094.13
2023-02-17T04:33:08.731Z,101091.47
2023-02-17T04:35:35.182Z,101091.31
2023-02-17T04:38:01.688Z,101095.53
2023-02-17T04:40:28.123Z,101081.63
2023-02-17T04:42:54.521Z,101088.09
2023-02-17T04:45:22.312Z,101082.19
2023-02-17T04:47:49.173Z,101099.06
2023-02-17T04:50:15.715Z,101073.03
2023-02-17T04:52:42.236Z,101060.81
2023-02-17T04:55:09.112Z,101067.69
2023-02-17T04:57:35.591Z,101077.69
2023-02-17T05:00:04.005Z,101085.00
2023-02-17T05:02:31.451Z,101045.47
2023-02-17T05:04:57.915Z,101083.16
2023-02-17T05:07:24.636Z,101061.09
2023-02-17T05:09:51.025Z,101059.13
2023-02-17T05:12:17.454Z,101048.28
2023-02-17T05:14:43.968Z,101058.13
2023-02-17T05:17:10.595Z,100989.50
2023-02-17T05:19:37.034Z,101044.63
2023-02-17T05:22:03.665Z,101046.59
2023-02-17T05:24:30.172Z,101038.00
2023-02-17T05:26:56.570Z,101043.91
2023-02-17T05:29:24.124Z,101034.91
2023-02-17T05:31:50.668Z,101037.03
2023-02-17T05:34:17.135Z,100993.31
2023-02-17T05:36:43.663Z,101032.78
2023-02-17T05:39:10.137Z,101013.25
2023-02-17T05:41:36.580Z,100969.41
2023-02-17T05:44:03.059Z,100990.16
2023-02-17T05:46:29.541Z,101005.34
2023-02-17T05:48:55.969Z,100988.47
2023-02-17T05:51:22.498Z,100987.78
2023-02-17T05:53:49.011Z,100991.00
2023-02-17T05:56:15.437Z,100986.50
2023-02-17T05:58:41.809Z,100981.00
2023-02-17T06:01:10.303Z,100987.47
2023-02-17T06:03:37.607Z,100991.16
2023-02-17T06:06:05.643Z,100944.50
2023-02-17T06:08:32.315Z,100985.09
2023-02-17T06:10:58.895Z,100965.41
2023-02-17T06:13:25.468Z,100976.09
2023-02-17T06:15:51.923Z,100963.28
2023-02-17T06:18:19.728Z,100961.75
2023-02-17T06:20:46.310Z,100938.53
2023-02-17T06:23:12.756Z,100942.63
2023-02-17T06:25:39.177Z,100944.00
2023-02-17T06:28:05.720Z,100939.81
2023-02-17T06:30:32.253Z,100937.69
2023-02-17T06:32:59.238Z,100927.16
2023-02-17T06:35:26.454Z,100905.31
2023-02-17T06:37:53.337Z,100915.03
2023-02-17T06:40:20.158Z,100917.41
2023-02-17T06:42:46.643Z,100908.56
2023-02-17T06:45:13.336Z,100910.41
2023-02-17T06:47:39.781Z,100878.25
2023-02-17T06:50:07.124Z,100906.16
2023-02-17T06:52:33.780Z,100910.53
2023-02-17T06:55:00.231Z,100898.28
2023-02-17T06:57:26.911Z,100839.06
2023-02-17T06:59:53.453Z,100833.72
2023-02-17T07:02:20.609Z,100889.03
2023-02-17T07:04:47.158Z,100848.00
2023-02-17T07:07:13.565Z,100861.72
2023-02-17T07:09:40.556Z,100873.41
2023-02-17T07:12:07.429Z,100864.53
2023-02-17T07:14:34.755Z,100877.19
2023-02-17T07:17:01.362Z,100828.88
2023-02-17T07:19:27.964Z,100829.72
2023-02-17T07:21:54.607Z,100867.47
2023-02-17T07:24:21.243Z,100877.59
2023-02-17T07:26:48.532Z,100843.09
2023-02-17T07:29:15.036Z,100875.78
2023-02-17T07:31:41.524Z,100852.56
2023-02-17T07:34:08.062Z,100865.78
2023-02-17T07:36:34.843Z,100869.47
2023-02-17T07:39:02.434Z,100865.78
2023-02-17T07:41:30.578Z,100827.84
2023-02-17T07:43:57.661Z,100844.00
2023-02-17T07:46:24.742Z,100854.53
2023-02-17T07:48:51.156Z,100854.66
2023-02-17T07:51:21.084Z,100846.66
2023-02-17T07:53:48.663Z,100866.19
2023-02-17T07:56:16.905Z,100849.44
2023-02-17T07:58:44.826Z,100829.75
2023-02-17T08:01:12.771Z,100837.63
2023-02-17T08:03:40.143Z,100826.25
2023-02-17T08:06:10.925Z,100806.69
2023-02-17T08:08:56.149Z,100817.53
2023-02-17T08:11:49.805Z,100799.66
2023-02-17T08:14:16.683Z,100801.34
2023-02-17T08:16:43.367Z,100786.19
2023-02-17T08:19:09.848Z,100797.66
2023-02-17T08:21:36.348Z,100768.44
2023-02-17T08:24:02.963Z,100734.22
2023-02-17T08:26:29.729Z,100743.78
2023-02-17T08:28:56.800Z,100783.84
2023-02-17T08:31:29.999Z,100783.03
2023-02-17T08:33:57.440Z,100762.06
2023-02-17T08:36:24.896Z,100764.75
2023-02-17T08:38:52.682Z,100770.34
2023-02-17T08:41:23.594Z,100765.00
2023-02-17T08:43:50.970Z,100756.19
2023-02-17T08:46:19.735Z,100744.34
2023-02-17T08:48:47.471Z,100689.34
2023-02-17T08:51:25.776Z,100768.00
2023-02-17T08:53:55.102Z,100770.94
2023-02-17T08:56:23.252Z,100770.50
2023-02-17T08:58:50.255Z,100780.38
2023-02-17T09:01:18.953Z,100762.56
2023-02-17T09:03:47.250Z,100785.16
2023-02-17T09:06:15.661Z,100763.31
2023-02-17T09:08:43.865Z,100760.50
2023-02-17T09:11:15.328Z,100761.09
2023-02-17T09:13:41.790Z,100757.13
2023-02-17T09:16:08.653Z,100753.59
2023-02-17T09:18:35.411Z,100744.59
2023-02-17T09:21:12.006Z,100732.97
2023-02-17T09:23:39.752Z,100740.94
2023-02-17T09:26:11.894Z,100717.75
2023-02-17T09:28:39.172Z,100720.69
2023-02-17T09:31:24.132Z,100666.44
2023-02-17T09:33:51.617Z,100696.63
2023-02-17T09:36:30.918Z,100699.53
2023-02-17T09:38:57.728Z,100708.84
2023-02-17T09:41:32.365Z,100710.53
2023-02-17T09:43:59.600Z,100702.38
2023-02-17T09:46:44.838Z,100681.47
2023-02-17T09:49:22.706Z,100691.53
2023-02-17T09:51:56.048Z,100691.56
2023-02-17T09:54:41.520Z,100696.06
2023-02-17T09:57:14.321Z,100686.69
2023-02-17T09:59:46.637Z,100694.25
2023-02-17T10:02:41.462Z,100717.03
2023-02-17T10:05:11.393Z,100723.22
2023-02-17T10:07:51.200Z,100679.09
2023-02-17T10:10:25.987Z,100730.53
2023-02-17T10:13:00.099Z,100712.38
2023-02-17T10:15:31.959Z,100720.53
2023-02-17T10:18:26.457Z,100728.16
2023-02-17T10:21:02.320Z,100710.06
2023-02-17T10:23:29.712Z,100758.81
2023-02-17T10:26:14.555Z,100744.81
2023-02-17T10:28:50.422Z,100737.63
2023-02-17T10:31:33.044Z,100725.41
2023-02-17T10:34:08.733Z,100714.06
2023-02-17T10:37:01.384Z,100739.56
2023-02-17T10:39:44.728Z,100731.97
2023-02-17T10:42:21.978Z,100689.03
2023-02-17T10:44:50.996Z,100712.81
2023-02-17T10:47:19.092Z,100709.06
2023-02-17T10:49:49.607Z,100712.81
2023-02-17T10:52:19.395Z,100696.75
2023-02-17T10:55:00.517Z,100684.72
2023-02-17T10:57:35.448Z,100699.84
2023-02-17T11:00:02.193Z,100689.69
2023-02-17T11:02:44.682Z,100686.78
2023-02-17T11:05:41.510Z,100688.50
2023-02-17T11:08:40.138Z,100673.28
2023-02-17T11:11:24.598Z,100694.03
2023-02-17T11:14:06.392Z,100697.91
2023-02-17T11:16:37.588Z,100667.88
2023-02-17T11:19:06.656Z,100704.94
2023-02-17T11:21:33.643Z,100678.34
2023-02-17T11:24:05.973Z,100659.03
2023-02-17T11:26:35.190Z,100685.22
2023-02-17T11:29:16.101Z,100689.13
2023-02-17T11:31:42.695Z,100609.50
2023-02-17T11:34:15.106Z,100678.41
2023-02-17T11:36:45.679Z,100685.75
2023-02-17T11:39:22.088Z,100670.53
2023-02-17T11:41:48.992Z,100613.56
2023-02-17T11:44:28.387Z,100678.09
2023-02-17T11:47:13.444Z,100668.56
2023-02-17T11:50:26.120Z,100669.72
2023-02-17T11:53:39.013Z,100682.66
2023-02-17T11:56:20.767Z,100645.75
2023-02-17T11:59:24.624Z,100675.31
2023-02-17T12:02:06.254Z,100693.19
2023-02-17T12:04:38.204Z,100685.53
2023-02-17T12:07:31.785Z,100682.69
2023-02-17T12:10:30.541Z,100673.03
2023-02-17T12:13:23.211Z,100662.31
2023-02-17T12:15:59.846Z,100664.84
2023-02-17T12:18:41.161Z,100671.03
2023-02-17T12:21:07.476Z,100662.69
2023-02-17T12:24:05.450Z,100666.53
2023-02-17T12:26:42.104Z,100648.31
2023-02-17T12:29:29.569Z,100654.16
2023-02-17T12:32:10.319Z,100644.13
2023-02-17T12:34:44.154Z,100656.19
2023-02-17T12:37:26.023Z,100654.88
2023-02-17T12:39:59.489Z,100667.59
2023-02-17T12:42:51.738Z,100672.94
2023-02-17T12:45:22.062Z,100613.06
2023-02-17T12:48:01.516Z,100665.38
2023-02-17T12:50:35.373Z,100676.63
2023-02-17T12:53:05.747Z,100670.91
2023-02-17T12:55:48.315Z,100670.13
2023-02-17T12:58:25.901Z,100682.13
2023-02-17T13:01:06.876Z,100673.25
2023-02-17T13:03:35.801Z,100674.25
2023-02-17T13:06:30.275Z,100639.75
2023-02-17T13:09:02.778Z,100676.63
2023-02-17T13:11:32.468Z,100670.75
2023-02-17T13:14:29.796Z,100655.59
2023-02-17T13:16:56.645Z,100687.81
2023-02-17T13:19:32.679Z,100696.38
2023-02-17T13:22:02.261Z,100654.41
2023-02-17T13:24:34.796Z,100677.59
2023-02-17T13:27:32.858Z,100692.53
2023-02-17T13:30:05.408Z,100695.22
2023-02-17T13:32:34.495Z,100687.19
2023-02-17T13:35:07.301Z,100679.31
2023-02-17T13:37:33.689Z,100686.88
2023-02-17T13:40:02.095Z,100637.69
2023-02-17T13:42:40.208Z,100681.84
2023-02-17T13:45:34.840Z,100678.00
2023-02-17T13:48:20.340Z,100642.66
2023-02-17T13:50:53.172Z,100671.13
2023-02-17T13:53:40.954Z,100686.03
2023-02-17T13:56:12.261Z,100713.16
2023-02-17T13:58:41.189Z,100702.25
2023-02-17T14:01:14.555Z,100690.53
2023-02-17T14:03:40.911Z,100677.31
2023-02-17T14:06:18.607Z,100705.63
2023-02-17T14:08:45.053Z,100704.94
2023-02-17T14:11:19.395Z,100721.69
2023-02-17T14:13:48.873Z,100701.19
2023-02-17T14:16:34.096Z,100732.41
2023-02-17T14:19:20.824Z,100701.34
2023-02-17T14:21:56.566Z,100725.03
2023-02-17T14:24:35.603Z,100712.91
2023-02-17T14:27:06.921Z,100750.16
2023-02-17T14:29:40.222Z,100707.91
2023-02-17T14:32:07.762Z,100744.56
2023-02-17T14:34:36.213Z,100781.00
2023-02-17T14:37:09.724Z,100755.25
2023-02-17T14:39:36.656Z,100740.91
2023-02-17T14:42:03.237Z,100753.38
2023-02-17T14:44:29.696Z,100743.22
2023-02-17T14:46:56.096Z,100787.41
2023-02-17T14:49:22.531Z,100746.47
2023-02-17T14:51:49.063Z,100794.59
2023-02-17T14:54:17.300Z,100781.22
2023-02-17T14:56:49.451Z,100811.34
2023-02-17T14:59:15.999Z,100824.91
2023-02-17T15:01:42.516Z,100776.19
2023-02-17T15:04:08.944Z,100808.84
2023-02-17T15:06:43.381Z,100810.28
2023-02-17T15:09:13.266Z,100839.28
2023-02-17T15:11:41.537Z,100824.91
2023-02-17T15:14:14.612Z,100842.66
2023-02-17T15:16:41.001Z,100854.34
2023-02-17T15:19:09.234Z,100844.78
2023-02-17T15:21:38.008Z,100865.81
2023-02-17T15:24:14.095Z,100862.97
2023-02-17T15:26:40.582Z,100856.09
2023-02-17T15:29:15.322Z,100873.63
2023-02-17T15:31:41.907Z,100839.38
2023-02-17T15:34:20.264Z,100868.63
2023-02-17T15:36:47.329Z,100846.53
2023-02-17T15:39:16.995Z,100859.56
2023-02-17T15:41:44.938Z,100884.84
2023-02-17T15:44:26.169Z,100881.13
2023-02-17T15:46:54.654Z,100872.53
2023-02-17T15:49:21.731Z,100896.72
2023-02-17T15:51:48.357Z,100906.03
2023-02-17T15:54:19.026Z,100888.03
2023-02-17T15:56:49.108Z,100863.97
2023-02-17T15:59:24.537Z,100888.25
2023-02-17T16:01:51.250Z,100871.94
2023-02-17T16:04:17.906Z,100913.25
2023-02-17T16:06:44.459Z,100907.91
2023-02-17T16:09:11.250Z,100872.75
2023-02-17T16:11:47.566Z,100916.72
2023-02-17T16:14:24.016Z,100920.81
2023-02-17T16:16:51.032Z,100917.34
2023-02-17T16:19:17.450Z,100908.63
2023-02-17T16:21:43.912Z,100931.19
2023-02-17T16:24:10.323Z,100944.81
2023-02-17T16:26:38.264Z,100951.84
2023-02-17T16:29:13.917Z,100929.53
2023-02-17T16:31:40.480Z,100952.03
2023-02-17T16:34:06.983Z,100959.22
2023-02-17T16:36:35.758Z,100922.00
2023-02-17T16:39:10.313Z,100995.19
2023-02-17T16:41:36.762Z,100990.25
2023-02-17T16:44:03.209Z,100987.88
2023-02-17T16:46:33.130Z,101002.66
2023-02-17T16:49:02.573Z,101018.66
2023-02-17T16:51:29.293Z,100965.25
2023-02-17T16:53:56.270Z,100999.81
2023-02-17T16:56:29.802Z,101004.31
2023-02-17T16:58:56.236Z,100992.91
2023-02-17T17:01:24.251Z,100974.66
2023-02-17T17:03:50.904Z,101042.19
2023-02-17T17:06:27.516Z,101015.13
2023-02-17T17:08:54.587Z,101020.59
2023-02-17T17:11:24.773Z,101037.84
2023-02-17T17:13:52.052Z,101028.59
2023-02-17T17:16:34.695Z,101048.19
2023-02-17T17:19:02.057Z,101050.44
2023-02-17T17:21:28.945Z,101076.44
2023-02-17T17:23:55.615Z,101069.13
2023-02-17T17:26:31.881Z,101075.13
2023-02-17T17:28:58.724Z,101067.13
2023-02-17T17:31:25.979Z,101071.13
2023-02-17T17:33:53.450Z,101073.03
2023-02-17T17:36:26.740Z,101081.44
2023-02-17T17:38:54.512Z,101098.97
2023-02-17T17:41:22.571Z,101103.59
2023-02-17T17:43:49.767Z,101100.94
2023-02-17T17:46:18.603Z,101092.09
2023-02-17T17:48:45.260Z,101103.16
2023-02-17T17:51:17.982Z,101120.00
2023-02-17T17:53:44.881Z,101072.97
2023-02-17T17:56:33.572Z,101096.28
2023-02-17T17:59:01.935Z,101104.53
2023-02-17T18:01:28.444Z,101108.41
2023-02-17T18:03:57.225Z,101119.19
2023-02-17T18:06:40.712Z,101129.16
2023-02-17T18:09:13.295Z,101110.75
2023-02-17T18:11:44.531Z,101141.88
2023-02-17T18:14:13.993Z,101104.00
2023-02-17T18:16:42.569Z,101146.53
2023-02-17T18:19:09.043Z,101132.38
2023-02-17T18:21:35.876Z,101126.06
2023-02-17T18:24:03.540Z,101134.19
2023-02-17T18:26:30.415Z,101136.75
2023-02-17T18:28:57.509Z,101126.06
2023-02-17T18:31:29.495Z,101154.19
2023-02-17T18:33:56.506Z,101148.16
2023-02-17T18:36:26.098Z,101123.59
2023-02-17T18:38:54.503Z,101170.06
2023-02-17T18:41:24.492Z,101176.25
2023-02-17T18:43:51.185Z,101143.13
2023-02-17T18:46:18.242Z,101171.63
2023-02-17T18:48:45.042Z,101168.00
2023-02-17T18:51:14.481Z,101182.19
2023-02-17T18:53:41.834Z,101192.00
2023-02-17T18:56:13.280Z,101178.66
2023-02-17T18:58:40.311Z,101193.94
2023-02-17T19:01:07.335Z,101182.31
2023-02-17T19:03:33.725Z,101184.50
2023-02-17T19:06:08.965Z,101192.50
2023-02-17T19:08:35.502Z,101180.50
2023-02-17T19:11:02.913Z,101191.13
2023-02-17T19:13:29.428Z,101204.91
2023-02-17T19:16:04.719Z,101197.03
2023-02-17T19:18:31.308Z,101205.78
2023-02-17T19:20:59.727Z,101204.56
2023-02-17T19:23:26.346Z,101194.44
2023-02-17T19:25:52.904Z,101203.78
2023-02-17T19:28:19.290Z,101224.72
2023-02-17T19:30:45.765Z,101227.38
2023-02-17T19:33:12.268Z,101244.47
2023-02-17T19:35:42.820Z,101220.63
2023-02-17T19:38:09.256Z,101200.59
2023-02-17T19:40:36.417Z,101232.84
2023-02-17T19:43:03.147Z,101221.19
2023-02-17T19:45:29.934Z,101259.97
2023-02-17T19:47:56.379Z,101266.41
2023-02-17T19:50:22.914Z,101271.50
2023-02-17T19:52:49.523Z,101273.66
2023-02-17T19:55:16.009Z,101241.75
2023-02-17T19:57:42.539Z,101241.41
2023-02-17T20:00:10.105Z,101264.34
2023-02-17T20:02:36.971Z,101200.63
2023-02-17T20:05:03.648Z,101292.69
2023-02-17T20:07:31.628Z,101295.97
2023-02-17T20:09:58.103Z,101282.50
2023-02-17T20:12:24.582Z,101296.69
2023-02-17T20:14:53.150Z,101253.59
2023-02-17T20:17:19.589Z,101299.47
2023-02-17T20:19:46.003Z,101307.22
2023-02-17T20:22:12.537Z,101311.94
2023-02-17T20:24:40.730Z,101325.88
2023-02-17T20:27:07.627Z,101246.47
2023-02-17T20:29:36.200Z,101309.03
2023-02-17T20:32:03.332Z,101314.22
2023-02-17T20:34:35.867Z,101307.22
2023-02-17T20:37:02.640Z,101243.34
2023-02-17T20:39:29.304Z,101329.88
2023-02-17T20:41:56.400Z,101323.09
2023-02-17T20:44:27.728Z,101298.53
2023-02-17T20:46:55.213Z,101280.28
2023-02-17T20:49:22.140Z,101326.03
2023-02-17T20:51:48.945Z,101316.59
2023-02-17T20:54:15.660Z,101352.53
2023-02-17T20:56:44.646Z,101336.47
2023-02-17T20:59:13.050Z,101354.97
2023-02-17T21:01:41.154Z,101360.31
2023-02-17T21:04:08.352Z,101361.88
2023-02-17T21:06:41.278Z,101356.19
2023-02-17T21:09:16.895Z,101364.66
2023-02-17T21:11:44.046Z,101376.66
2023-02-17T21:14:10.850Z,101333.66
2023-02-17T21:16:37.913Z,101372.03
2023-02-17T21:19:04.728Z,101363.91
2023-02-17T21:21:31.592Z,101381.25
2023-02-17T21:23:59.140Z,101394.56
2023-02-17T21:26:26.422Z,101391.28
2023-02-17T21:28:54.215Z,101372.88
2023-02-17T21:31:20.898Z,101381.59
2023-02-17T21:33:47.463Z,101385.84
2023-02-17T21:36:16.844Z,101390.06
2023-02-17T21:38:43.340Z,101389.34
2023-02-17T21:41:14.070Z,101397.47
2023-02-17T21:43:59.870Z,101402.78
2023-02-17T21:46:27.320Z,101397.56
2023-02-17T21:48:55.523Z,101355.53
2023-02-17T21:51:21.932Z,101397.81
2023-02-17T21:53:48.709Z,101398.38
2023-02-17T21:56:15.921Z,101401.19
2023-02-17T21:58:50.090Z,101383.25
2023-02-17T22:01:17.073Z,101388.94
2023-02-17T22:03:43.600Z,101404.06
2023-02-17T22:06:18.129Z,101399.81
2023-02-17T22:08:45.522Z,101408.03
2023-02-17T22:11:27.165Z,101400.16
2023-02-17T22:13:59.270Z,101405.72
2023-02-17T22:16:26.307Z,101385.66
2023-02-17T22:18:53.011Z,101395.19
2023-02-17T22:21:19.462Z,101410.44
2023-02-17T22:23:46.076Z,101381.00
2023-02-17T22:26:22.648Z,101391.53
2023-02-17T22:28:50.399Z,101406.69
2023-02-17T22:31:19.530Z,101377.50
2023-02-17T22:33:46.524Z,101407.41
2023-02-17T22:36:16.272Z,101410.56
2023-02-17T22:38:43.083Z,101411.53
2023-02-17T22:41:12.257Z,101394.81
2023-02-17T22:43:40.584Z,101383.34
2023-02-17T22:46:09.257Z,101393.00
2023-02-17T22:48:37.760Z,101406.53
2023-02-17T22:51:09.232Z,101395.06
2023-02-17T22:53:36.627Z,101414.63
2023-02-17T22:56:04.951Z,101414.53
2023-02-17T22:58:32.354Z,101405.56
2023-02-17T23:01:13.245Z,101410.28
2023-02-17T23:03:40.476Z,101414.63
2023-02-17T23:06:11.533Z,101388.97
2023-02-17T23:08:38.172Z,101396.88
2023-02-17T23:11:10.040Z,101413.69
2023-02-17T23:13:36.999Z,101363.91
2023-02-17T23:16:04.221Z,101415.25
2023-02-17T23:18:32.000Z,101345.97
2023-02-17T23:20:59.701Z,101417.81
2023-02-17T23:23:26.594Z,101403.03
2023-02-17T23:25:55.164Z,101406.31
2023-02-17T23:28:24.603Z,101386.09
2023-02-17T23:30:52.204Z,101397.72
2023-02-17T23:33:20.853Z,101386.56
2023-02-17T23:35:47.686Z,101396.00
2023-02-17T23:38:17.664Z,101394.44
2023-02-17T23:40:51.251Z,101396.88
2023-02-17T23:43:18.873Z,101400.38
2023-02-17T23:45:45.562Z,101417.19
2023-02-17T23:48:12.339Z,101419.34
2023-02-17T23:50:38.993Z,101411.72
2023-02-17T23:53:05.974Z,101424.44
2023-02-17T23:55:32.487Z,101420.59
2023-02-17T23:58:00.639Z,101418.03
